Time;durP1;ratioP1;P1;durP2;ratioP2;P2;SDS_P1;SDS_P2;PMS_P1;PMS_P2;Temp;Humidity;BMP_temperature;BMP_pressure;BME280_temperature;BME280_humidity;BME280_pressure;Samples;Min_cycle;Max_cycle;Signal;HPM_P1;HPM_P2
2024/01/17 00:02:14;;;;;;;19.50;9.87;;;-0.90;99.90;;;;;;4971879;28;20038;-87
2024/01/17 00:04:45;;;;;;;18.60;10.50;;;-0.90;99.90;;;;;;4955336;28;20035;-87
2024/01/17 00:07:11;;;;;;;21.07;11.80;;;-1.00;99.90;;;;;;4970901;28;20469;-86
2024/01/17 00:09:38;;;;;;;18.90;10.77;;;-1.00;99.90;;;;;;4970133;28;20050;-84
2024/01/17 00:12:05;;;;;;;19.67;11.30;;;-1.10;99.90;;;;;;5004695;28;20030;-89
2024/01/17 00:14:31;;;;;;;23.00;11.60;;;-1.10;99.90;;;;;;4974537;28;20039;-83
2024/01/17 00:16:58;;;;;;;21.30;11.63;;;-1.10;99.90;;;;;;4972086;28;20053;-80
2024/01/17 00:19:24;;;;;;;20.13;11.17;;;-1.20;99.90;;;;;;4971231;28;20050;-83
2024/01/17 00:21:51;;;;;;;19.93;11.10;;;-1.10;99.90;;;;;;4971227;28;20038;-89
2024/01/17 00:24:17;;;;;;;17.27;9.77;;;-1.20;99.90;;;;;;4992744;28;20034;-76
2024/01/17 00:26:43;;;;;;;14.33;9.60;;;-1.20;99.90;;;;;;4981517;28;20038;-74
2024/01/17 00:29:10;;;;;;;14.33;9.83;;;-1.20;99.90;;;;;;4959702;28;20037;-80
2024/01/17 00:31:36;;;;;;;22.17;10.33;;;-1.20;99.90;;;;;;4971937;28;20344;-85
2024/01/17 00:34:02;;;;;;;14.23;8.50;;;-1.20;99.90;;;;;;4982751;28;20038;-85
2024/01/17 00:36:29;;;;;;;14.30;9.27;;;-1.20;99.90;;;;;;4957718;28;20516;-89
2024/01/17 00:38:58;;;;;;;18.63;11.07;;;-1.20;99.90;;;;;;4973153;28;20041;-74
2024/01/17 00:41:24;;;;;;;15.00;9.20;;;-1.20;99.90;;;;;;4937858;28;20041;-87
2024/01/17 00:43:51;;;;;;;16.37;10.43;;;-1.30;99.90;;;;;;5002170;28;20034;-81
2024/01/17 00:46:18;;;;;;;16.37;9.63;;;-1.30;99.90;;;;;;4971374;28;20038;-82
2024/01/17 00:48:44;;;;;;;20.30;10.97;;;-1.30;99.90;;;;;;4985790;28;20034;-84
2024/01/17 00:51:20;;;;;;;18.73;11.17;;;-1.30;99.90;;;;;;4984082;28;20045;-88
2024/01/17 00:53:47;;;;;;;17.97;10.43;;;-1.30;99.90;;;;;;5002177;28;20035;-86
2024/01/17 00:56:13;;;;;;;23.27;9.73;;;-1.40;99.90;;;;;;4955883;28;20417;-88
2024/01/17 00:58:39;;;;;;;16.83;10.13;;;-1.30;99.90;;;;;;4985273;28;20433;-86
2024/01/17 01:01:06;;;;;;;14.13;7.77;;;-1.40;99.90;;;;;;5003525;28;20042;-82
2024/01/17 01:03:32;;;;;;;15.67;9.43;;;-1.40;99.90;;;;;;4957362;28;20045;-86
2024/01/17 01:05:58;;;;;;;13.60;8.37;;;-1.40;99.90;;;;;;5004726;28;20569;-78
2024/01/17 01:08:25;;;;;;;14.60;8.33;;;-1.40;99.90;;;;;;4958013;28;20680;-78
2024/01/17 01:10:51;;;;;;;14.90;9.33;;;-1.40;99.90;;;;;;4971822;28;20049;-84
2024/01/17 01:13:18;;;;;;;20.90;9.10;;;-1.30;99.90;;;;;;4973080;28;20041;-81
2024/01/17 01:15:44;;;;;;;15.17;9.17;;;-1.30;99.90;;;;;;4970259;28;20030;-76
2024/01/17 01:18:11;;;;;;;16.07;9.83;;;-1.30;99.90;;;;;;4954081;28;20445;-87
2024/01/17 01:20:37;;;;;;;17.53;8.60;;;-1.30;99.90;;;;;;4985720;28;20049;-78
2024/01/17 01:23:04;;;;;;;17.20;8.57;;;-1.20;99.90;;;;;;4973117;28;20657;-89
2024/01/17 01:25:30;;;;;;;11.63;7.60;;;-1.20;99.90;;;;;;4957400;28;20046;-86
2024/01/17 01:27:56;;;;;;;14.27;8.17;;;-1.20;99.90;;;;;;4973038;28;20043;-84
2024/01/17 01:30:23;;;;;;;11.27;7.73;;;-1.20;99.90;;;;;;5005479;28;20034;-86
2024/01/17 01:32:49;;;;;;;14.27;9.30;;;-1.20;99.90;;;;;;5003143;28;20051;-81
2024/01/17 01:35:16;;;;;;;14.33;8.33;;;-1.30;99.90;;;;;;5005266;28;20031;-76
2024/01/17 01:37:42;;;;;;;13.80;8.00;;;-1.30;99.90;;;;;;5002831;28;20053;-77
2024/01/17 01:40:09;;;;;;;13.97;7.20;;;-1.30;99.90;;;;;;4953757;28;20045;-84
2024/01/17 01:42:37;;;;;;;10.63;6.53;;;-1.40;99.90;;;;;;4985884;28;20066;-82
2024/01/17 01:45:04;;;;;;;14.40;7.80;;;-1.40;99.90;;;;;;4974209;28;20034;-85
2024/01/17 01:47:31;;;;;;;13.97;7.77;;;-1.50;99.90;;;;;;4988072;28;20034;-90
2024/01/17 01:49:58;;;;;;;14.97;7.93;;;-1.50;99.90;;;;;;5000767;28;20030;-90
2024/01/17 01:52:26;;;;;;;12.77;7.60;;;-1.50;99.90;;;;;;5003855;28;20042;-84
2024/01/17 01:54:54;;;;;;;14.63;7.80;;;-1.60;99.90;;;;;;4967445;28;20034;-90
2024/01/17 01:57:22;;;;;;;9.60;6.73;;;-1.60;99.90;;;;;;4970722;28;20042;-83
2024/01/17 01:59:51;;;;;;;12.60;6.67;;;-1.60;99.90;;;;;;4968140;28;20030;-75
2024/01/17 02:02:18;;;;;;;10.60;5.67;;;-1.70;99.90;;;;;;4985509;28;20925;-80
2024/01/17 02:04:45;;;;;;;10.10;6.47;;;-1.70;99.90;;;;;;4975932;28;20034;-83
2024/01/17 02:07:14;;;;;;;11.07;6.90;;;-1.70;99.90;;;;;;4970381;28;20035;-89
2024/01/17 02:09:44;;;;;;;9.43;5.53;;;-1.80;99.90;;;;;;4988250;28;20038;-84
2024/01/17 02:12:10;;;;;;;9.20;5.57;;;-1.80;99.90;;;;;;4989887;28;20041;-85
2024/01/17 02:14:41;;;;;;;15.23;7.60;;;-1.80;99.90;;;;;;4958381;28;20045;-87
2024/01/17 02:17:08;;;;;;;11.27;7.37;;;-1.90;99.90;;;;;;5006189;28;20038;-84
2024/01/17 02:19:36;;;;;;;15.37;7.50;;;-1.90;99.90;;;;;;4991826;28;20043;-85
2024/01/17 02:22:02;;;;;;;8.73;6.20;;;-1.90;99.90;;;;;;4958205;28;20576;-80
2024/01/17 02:24:31;;;;;;;10.17;6.10;;;-1.90;99.90;;;;;;4979522;28;20046;-84
2024/01/17 02:27:01;;;;;;;8.83;6.30;;;-2.00;99.90;;;;;;4976233;28;20047;-82
2024/01/17 02:29:28;;;;;;;15.13;8.43;;;-2.00;99.90;;;;;;4992679;28;20038;-81
2024/01/17 02:31:56;;;;;;;16.13;8.13;;;-2.00;99.90;;;;;;4991417;28;20033;-84
2024/01/17 02:34:22;;;;;;;13.23;8.00;;;-2.00;99.90;;;;;;4973934;28;20034;-81
2024/01/17 02:36:49;;;;;;;12.00;6.47;;;-2.00;99.90;;;;;;5006996;28;20034;-88
2024/01/17 02:39:15;;;;;;;13.87;7.40;;;-2.10;99.90;;;;;;4973944;28;20482;-87
2024/01/17 02:41:44;;;;;;;12.87;7.53;;;-2.10;99.90;;;;;;4975034;28;20046;-83
2024/01/17 02:44:11;;;;;;;14.90;7.40;;;-2.00;99.90;;;;;;4971426;28;20041;-82
2024/01/17 02:46:37;;;;;;;14.10;6.63;;;-2.10;99.90;;;;;;4988740;28;20037;-77
2024/01/17 02:49:04;;;;;;;12.80;7.53;;;-2.10;99.90;;;;;;5006215;28;20038;-86
2024/01/17 02:51:30;;;;;;;11.20;6.40;;;-2.10;99.90;;;;;;5005621;28;20035;-85
2024/01/17 02:53:56;;;;;;;10.20;6.13;;;-2.10;99.90;;;;;;4974181;28;20042;-85
2024/01/17 02:56:23;;;;;;;11.30;6.47;;;-2.20;99.90;;;;;;4989882;28;20038;-82
2024/01/17 02:58:49;;;;;;;9.47;6.80;;;-2.20;99.90;;;;;;5003483;28;20474;-75
2024/01/17 03:01:15;;;;;;;10.00;5.63;;;-2.20;99.90;;;;;;4989501;28;20417;-91
2024/01/17 03:03:42;;;;;;;14.53;7.70;;;-2.20;99.90;;;;;;4974299;28;20041;-85
2024/01/17 03:06:08;;;;;;;17.17;9.27;;;-2.10;99.90;;;;;;4959373;28;20655;-78
2024/01/17 03:08:35;;;;;;;20.70;8.53;;;-2.10;99.90;;;;;;4973487;28;20042;-84
2024/01/17 03:11:01;;;;;;;13.97;7.60;;;-2.10;99.90;;;;;;4971226;28;20046;-75
2024/01/17 03:13:27;;;;;;;16.73;8.37;;;-2.10;99.90;;;;;;4941948;28;20382;-84
2024/01/17 03:15:54;;;;;;;12.60;7.97;;;-2.10;99.90;;;;;;4972716;28;20049;-85
2024/01/17 03:18:20;;;;;;;15.33;7.90;;;-2.10;99.90;;;;;;4940816;28;20494;-86
2024/01/17 03:20:46;;;;;;;14.17;8.17;;;-2.10;99.90;;;;;;4955714;28;20038;-88
2024/01/17 03:23:15;;;;;;;15.23;8.87;;;-2.10;99.90;;;;;;4972904;28;20046;-90
2024/01/17 03:25:41;;;;;;;15.07;9.43;;;-2.10;99.90;;;;;;4957176;28;20500;-84
2024/01/17 03:28:08;;;;;;;16.67;9.00;;;-2.10;99.90;;;;;;4959441;28;20179;-87
2024/01/17 03:30:36;;;;;;;13.57;7.57;;;-2.00;99.90;;;;;;4989034;28;20043;-77
2024/01/17 03:33:04;;;;;;;16.27;8.43;;;-2.00;99.90;;;;;;4986619;28;20120;-86
2024/01/17 03:35:31;;;;;;;16.13;8.30;;;-2.00;99.90;;;;;;4987943;28;20793;-83
2024/01/17 03:37:57;;;;;;;18.13;8.47;;;-2.00;99.90;;;;;;5003925;28;20038;-77
2024/01/17 03:40:24;;;;;;;14.97;7.63;;;-2.00;99.90;;;;;;4970417;28;20038;-85
2024/01/17 03:42:50;;;;;;;15.07;8.10;;;-2.00;99.90;;;;;;4972593;28;20042;-84
2024/01/17 03:45:17;;;;;;;14.77;8.43;;;-2.00;99.90;;;;;;4971727;28;20038;-78
2024/01/17 03:47:43;;;;;;;13.57;8.17;;;-2.00;99.90;;;;;;4975122;28;20778;-87
2024/01/17 03:50:10;;;;;;;18.57;9.33;;;-2.00;99.90;;;;;;4987132;28;20046;-89
2024/01/17 03:52:36;;;;;;;15.33;8.20;;;-2.00;99.90;;;;;;4972736;28;20531;-86
2024/01/17 03:55:02;;;;;;;14.23;7.67;;;-2.00;99.90;;;;;;4956016;28;20054;-83
2024/01/17 03:57:29;;;;;;;14.67;6.73;;;-2.00;99.90;;;;;;4970469;28;20049;-75
2024/01/17 03:59:56;;;;;;;13.53;7.30;;;-2.00;99.90;;;;;;4988445;28;20073;-84
2024/01/17 04:02:22;;;;;;;13.40;7.60;;;-2.00;99.90;;;;;;5004482;28;20035;-84
2024/01/17 04:04:49;;;;;;;11.70;5.50;;;-2.00;99.90;;;;;;5004260;28;20039;-88
2024/01/17 04:07:20;;;;;;;15.10;7.40;;;-2.00;99.90;;;;;;5006187;28;20591;-75
2024/01/17 04:09:47;;;;;;;10.57;6.90;;;-2.00;99.90;;;;;;5004486;28;20038;-78
2024/01/17 04:12:13;;;;;;;12.00;6.97;;;-2.00;99.90;;;;;;4956906;28;20312;-81
2024/01/17 04:14:40;;;;;;;14.10;7.17;;;-2.00;99.90;;;;;;4972823;28;20367;-85
2024/01/17 04:17:08;;;;;;;12.43;8.13;;;-2.00;99.90;;;;;;5005909;28;20038;-83
2024/01/17 04:19:35;;;;;;;9.30;6.33;;;-2.00;99.90;;;;;;4979992;28;20053;-83
2024/01/17 04:22:01;;;;;;;10.97;6.70;;;-2.10;99.90;;;;;;4993268;28;20053;-84
2024/01/17 04:24:28;;;;;;;15.53;7.30;;;-2.00;99.90;;;;;;4977431;28;20034;-86
2024/01/17 04:26:55;;;;;;;13.37;7.57;;;-2.10;99.90;;;;;;4973200;28;20026;-75
2024/01/17 04:29:21;;;;;;;15.33;8.07;;;-2.10;99.90;;;;;;4990349;28;20910;-76
2024/01/17 04:31:48;;;;;;;10.20;7.10;;;-2.10;99.90;;;;;;4989395;28;20057;-86
2024/01/17 04:34:15;;;;;;;12.47;7.33;;;-2.10;99.90;;;;;;4973579;28;20034;-88
2024/01/17 04:36:42;;;;;;;12.47;8.00;;;-2.10;99.90;;;;;;5006528;28;20046;-84
2024/01/17 04:39:08;;;;;;;15.27;8.27;;;-2.10;99.90;;;;;;5005349;28;20042;-84
2024/01/17 04:41:34;;;;;;;11.57;6.90;;;-2.10;99.90;;;;;;4957104;28;20045;-84
2024/01/17 04:44:01;;;;;;;12.60;7.73;;;-2.10;99.90;;;;;;4974545;28;20039;-87
2024/01/17 04:46:27;;;;;;;17.20;7.33;;;-2.10;99.90;;;;;;4972486;28;20038;-75
2024/01/17 04:48:53;;;;;;;13.30;7.20;;;-2.10;99.90;;;;;;4972056;28;20034;-82
2024/01/17 04:51:22;;;;;;;10.33;6.13;;;-2.10;99.90;;;;;;4959748;28;20042;-86
2024/01/17 04:53:49;;;;;;;11.97;6.03;;;-2.10;99.90;;;;;;5007889;28;20042;-74
2024/01/17 04:56:15;;;;;;;12.67;6.70;;;-2.10;99.90;;;;;;4974457;28;20053;-82
2024/01/17 04:58:46;;;;;;;14.83;7.50;;;-2.10;99.90;;;;;;4971924;28;20042;-87
2024/01/17 05:01:13;;;;;;;12.70;7.13;;;-2.10;99.90;;;;;;4989328;28;20050;-88
2024/01/17 05:03:42;;;;;;;11.97;7.40;;;-2.10;99.90;;;;;;4957546;28;20046;-80
2024/01/17 05:06:09;;;;;;;11.10;5.90;;;-2.10;99.90;;;;;;4966297;28;20049;-89
2024/01/17 05:08:35;;;;;;;9.27;5.37;;;-2.10;99.90;;;;;;4955539;28;20026;-84
2024/01/17 05:11:02;;;;;;;9.17;5.50;;;-2.10;99.90;;;;;;4971205;28;20517;-85
2024/01/17 05:13:28;;;;;;;11.13;5.30;;;-2.10;99.90;;;;;;4957728;28;20469;-79
2024/01/17 05:15:55;;;;;;;10.73;5.77;;;-2.10;99.90;;;;;;4971956;28;20030;-82
2024/01/17 05:18:21;;;;;;;16.70;8.37;;;-2.10;99.90;;;;;;4984874;28;20042;-84
2024/01/17 05:20:48;;;;;;;13.03;7.53;;;-2.10;99.90;;;;;;4954399;28;20049;-89
2024/01/17 05:23:14;;;;;;;13.07;8.90;;;-2.10;99.90;;;;;;4943406;28;20038;-83
2024/01/17 05:25:41;;;;;;;18.30;10.03;;;-2.10;99.90;;;;;;4956948;28;20057;-84
2024/01/17 05:28:07;;;;;;;14.40;9.17;;;-2.10;99.90;;;;;;4971944;28;20045;-87
2024/01/17 05:30:34;;;;;;;16.07;9.23;;;-2.10;99.90;;;;;;5004506;28;20022;-84
2024/01/17 05:33:00;;;;;;;13.07;8.20;;;-2.10;99.90;;;;;;4973298;28;20041;-86
2024/01/17 05:35:28;;;;;;;17.63;8.73;;;-2.10;99.90;;;;;;5005612;28;20389;-76
2024/01/17 05:37:55;;;;;;;12.40;8.20;;;-2.10;99.90;;;;;;4975184;28;20148;-87
2024/01/17 05:40:21;;;;;;;11.27;7.20;;;-2.10;99.90;;;;;;4975813;28;20035;-81
2024/01/17 05:42:47;;;;;;;11.73;7.13;;;-2.10;99.90;;;;;;4976290;28;20034;-84
2024/01/17 05:45:13;;;;;;;12.93;7.77;;;-2.10;99.90;;;;;;5008209;28;20031;-86
2024/01/17 05:47:40;;;;;;;10.53;6.97;;;-2.10;99.90;;;;;;4974655;28;20034;-83
2024/01/17 05:50:11;;;;;;;11.00;6.93;;;-2.10;99.90;;;;;;4960817;28;20397;-82
2024/01/17 05:52:42;;;;;;;12.37;7.33;;;-2.10;99.90;;;;;;4988127;28;20030;-83
2024/01/17 05:55:10;;;;;;;10.50;6.63;;;-2.10;99.90;;;;;;4958642;28;20580;-85
2024/01/17 05:57:37;;;;;;;10.53;7.00;;;-2.10;99.90;;;;;;4958703;28;20049;-84
2024/01/17 06:00:07;;;;;;;12.90;8.50;;;-2.10;99.90;;;;;;4958252;28;20046;-83
2024/01/17 06:02:35;;;;;;;11.23;7.10;;;-2.10;99.90;;;;;;4972970;28;20037;-86
2024/01/17 06:05:03;;;;;;;11.03;7.20;;;-2.10;99.90;;;;;;4989298;28;20428;-87
2024/01/17 06:07:30;;;;;;;13.40;7.80;;;-2.10;99.90;;;;;;4961819;28;20358;-76
2024/01/17 06:09:57;;;;;;;12.67;6.93;;;-2.10;99.90;;;;;;4993669;28;20632;-85
2024/01/17 06:12:23;;;;;;;14.50;9.23;;;-2.20;99.90;;;;;;4980215;28;20649;-81
2024/01/17 06:14:50;;;;;;;15.50;9.33;;;-2.20;99.90;;;;;;4995214;28;20034;-80
2024/01/17 06:17:17;;;;;;;10.83;7.17;;;-2.20;99.90;;;;;;4962436;28;20034;-82
2024/01/17 06:19:43;;;;;;;15.50;8.33;;;-2.20;99.90;;;;;;4975155;28;20500;-81
2024/01/17 06:22:10;;;;;;;16.60;8.57;;;-2.20;99.90;;;;;;4991145;28;20069;-79
2024/01/17 06:24:36;;;;;;;13.03;8.23;;;-2.20;99.90;;;;;;4976622;28;20881;-83
2024/01/17 06:27:03;;;;;;;15.70;8.30;;;-2.10;99.90;;;;;;4957556;28;20034;-82
2024/01/17 06:29:30;;;;;;;10.90;6.83;;;-2.20;99.90;;;;;;5007216;28;21076;-81
2024/01/17 06:31:58;;;;;;;13.53;6.70;;;-2.20;99.90;;;;;;4958666;28;20121;-85
2024/01/17 06:34:24;;;;;;;13.03;7.73;;;-2.20;99.90;;;;;;4989482;28;20041;-81
2024/01/17 06:36:51;;;;;;;12.23;7.10;;;-2.20;99.90;;;;;;4970948;28;20041;-83
2024/01/17 06:39:17;;;;;;;13.23;8.03;;;-2.10;99.90;;;;;;4967915;28;20042;-76
2024/01/17 06:41:44;;;;;;;10.50;6.83;;;-2.20;99.90;;;;;;4955468;28;20355;-81
2024/01/17 06:44:11;;;;;;;11.13;7.03;;;-2.20;99.90;;;;;;5002767;28;20030;-82
2024/01/17 06:46:37;;;;;;;12.50;7.43;;;-2.20;99.90;;;;;;4972521;28;20030;-79
2024/01/17 06:49:04;;;;;;;15.03;8.37;;;-2.20;99.90;;;;;;5002545;28;20039;-83
2024/01/17 06:51:30;;;;;;;10.53;7.00;;;-2.20;99.90;;;;;;4955584;28;20027;-81
2024/01/17 06:53:56;;;;;;;10.97;7.73;;;-2.20;99.90;;;;;;4940401;28;20037;-78
2024/01/17 06:56:23;;;;;;;14.70;7.87;;;-2.10;99.90;;;;;;4971041;28;20354;-81
2024/01/17 06:58:49;;;;;;;13.30;7.83;;;-2.10;99.90;;;;;;4970400;28;20061;-81
2024/01/17 07:01:16;;;;;;;17.30;8.90;;;-2.10;99.90;;;;;;4985095;28;20470;-82
2024/01/17 07:03:42;;;;;;;11.90;7.30;;;-2.20;99.90;;;;;;4971975;28;20049;-81
2024/01/17 07:06:10;;;;;;;14.23;8.20;;;-2.10;99.90;;;;;;4977890;28;20034;-82
2024/01/17 07:08:37;;;;;;;15.67;8.17;;;-2.20;99.90;;;;;;4986649;28;20141;-85
2024/01/17 07:11:03;;;;;;;13.60;8.27;;;-2.20;99.90;;;;;;4985024;28;20034;-78
2024/01/17 07:13:29;;;;;;;12.83;8.87;;;-2.20;99.90;;;;;;4954723;28;20046;-82
2024/01/17 07:15:56;;;;;;;15.70;9.53;;;-2.20;99.90;;;;;;4985491;28;20042;-73
2024/01/17 07:18:23;;;;;;;13.80;8.00;;;-2.20;99.90;;;;;;4971322;28;20049;-80
2024/01/17 07:20:50;;;;;;;15.83;9.00;;;-2.20;99.90;;;;;;4967801;28;20033;-79
2024/01/17 07:23:16;;;;;;;17.27;9.00;;;-2.20;99.90;;;;;;4969994;28;20046;-77
2024/01/17 07:25:43;;;;;;;16.60;9.87;;;-2.20;99.90;;;;;;4970393;28;20097;-75
2024/01/17 07:28:09;;;;;;;18.47;9.60;;;-2.20;99.90;;;;;;4967966;28;20523;-81
2024/01/17 07:30:36;;;;;;;16.00;9.20;;;-2.20;99.90;;;;;;4951199;28;20038;-81
2024/01/17 07:33:03;;;;;;;19.63;9.13;;;-2.10;99.90;;;;;;5000872;28;20491;-77
2024/01/17 07:35:29;;;;;;;12.53;8.50;;;-2.10;99.90;;;;;;4970431;28;20034;-80
2024/01/17 07:37:58;;;;;;;14.33;8.13;;;-2.10;99.90;;;;;;4952684;28;20397;-83
2024/01/17 07:40:25;;;;;;;13.30;8.33;;;-2.10;99.90;;;;;;4966884;28;20038;-77
2024/01/17 07:42:52;;;;;;;12.13;7.53;;;-2.10;99.90;;;;;;4980900;28;20023;-81
2024/01/17 07:45:19;;;;;;;12.77;7.80;;;-2.10;99.90;;;;;;4968304;28;20528;-81
2024/01/17 07:47:46;;;;;;;13.63;8.47;;;-2.10;99.90;;;;;;4984126;28;20038;-78
2024/01/17 07:50:12;;;;;;;14.23;7.70;;;-2.10;99.90;;;;;;4982193;28;20027;-76
2024/01/17 07:52:40;;;;;;;19.27;8.97;;;-2.10;99.90;;;;;;4968382;28;20042;-80
2024/01/17 07:55:06;;;;;;;15.73;8.93;;;-2.10;99.90;;;;;;4968616;28;20035;-81
2024/01/17 07:57:32;;;;;;;15.17;8.13;;;-2.10;99.90;;;;;;4985615;28;20037;-82
2024/01/17 07:59:59;;;;;;;14.57;8.20;;;-2.10;99.90;;;;;;4983669;28;20042;-81
2024/01/17 08:02:25;;;;;;;15.03;7.63;;;-2.10;99.90;;;;;;4967878;28;20034;-79
2024/01/17 08:04:53;;;;;;;14.73;8.80;;;-2.10;99.90;;;;;;4984514;28;20034;-81
2024/01/17 08:07:24;;;;;;;11.93;7.70;;;-2.10;99.90;;;;;;4969244;28;20441;-77
2024/01/17 08:09:52;;;;;;;11.83;7.20;;;-2.00;99.90;;;;;;4966810;28;20480;-79
2024/01/17 08:12:19;;;;;;;13.10;7.17;;;-2.00;99.90;;;;;;5004665;28;20034;-79
2024/01/17 08:14:46;;;;;;;10.87;6.30;;;-2.00;99.90;;;;;;4960312;28;20049;-83
2024/01/17 08:17:13;;;;;;;12.73;6.90;;;-1.90;99.90;;;;;;4979138;28;20026;-81
2024/01/17 08:19:40;;;;;;;12.73;7.50;;;-1.90;99.90;;;;;;4974631;28;20508;-79
2024/01/17 08:22:06;;;;;;;12.20;6.83;;;-1.80;99.90;;;;;;4962821;28;20401;-82
2024/01/17 08:24:33;;;;;;;12.23;7.37;;;-1.80;99.90;;;;;;4989559;28;20049;-85
2024/01/17 08:27:00;;;;;;;11.07;7.10;;;-1.80;99.90;;;;;;4986302;28;20045;-80
2024/01/17 08:29:26;;;;;;;9.33;6.07;;;-1.70;99.90;;;;;;4973345;28;20400;-84
2024/01/17 08:31:53;;;;;;;12.30;7.17;;;-1.70;99.90;;;;;;4956107;28;20026;-85
2024/01/17 08:34:20;;;;;;;13.07;7.87;;;-1.70;99.90;;;;;;4970809;28;20038;-81
2024/01/17 08:36:47;;;;;;;16.47;8.50;;;-1.70;99.90;;;;;;4988518;28;20054;-82
2024/01/17 08:39:15;;;;;;;17.03;9.40;;;-1.60;99.90;;;;;;4955723;28;20038;-83
2024/01/17 08:41:45;;;;;;;13.40;8.17;;;-1.60;99.90;;;;;;4971092;28;20031;-81
2024/01/17 08:44:13;;;;;;;15.43;8.60;;;-1.50;99.90;;;;;;4972372;28;20516;-81
2024/01/17 08:46:44;;;;;;;15.90;9.70;;;-1.50;99.90;;;;;;5005008;28;20065;-81
2024/01/17 08:49:11;;;;;;;15.03;9.40;;;-1.50;99.90;;;;;;4986898;28;20034;-84
2024/01/17 08:51:37;;;;;;;17.80;9.73;;;-1.40;99.90;;;;;;4987194;28;20041;-82
2024/01/17 08:54:06;;;;;;;18.20;10.53;;;-1.40;99.90;;;;;;4987782;28;20022;-83
2024/01/17 08:56:33;;;;;;;15.27;9.30;;;-1.30;99.90;;;;;;4957268;28;20481;-82
2024/01/17 08:59:01;;;;;;;18.10;10.50;;;-1.30;99.90;;;;;;4971462;28;20465;-84
2024/01/17 09:01:28;;;;;;;17.27;10.03;;;-1.30;99.90;;;;;;4969557;28;20457;-83
2024/01/17 09:03:55;;;;;;;15.13;9.67;;;-1.20;99.90;;;;;;4971620;28;20030;-82
2024/01/17 09:06:21;;;;;;;17.87;9.53;;;-1.20;99.90;;;;;;4969780;28;20407;-77
2024/01/17 09:08:47;;;;;;;18.23;9.57;;;-1.10;99.90;;;;;;4956523;28;20045;-84
2024/01/17 09:11:14;;;;;;;16.03;9.53;;;-1.10;99.90;;;;;;4984826;28;20034;-80
2024/01/17 09:13:41;;;;;;;15.27;9.60;;;-1.10;99.90;;;;;;4974209;28;22371;-85
2024/01/17 09:16:08;;;;;;;16.07;9.67;;;-1.00;99.90;;;;;;4957204;28;20038;-84
2024/01/17 09:18:34;;;;;;;15.93;9.67;;;-1.00;99.90;;;;;;4970963;28;20041;-81
2024/01/17 09:21:00;;;;;;;17.07;9.77;;;-0.90;99.90;;;;;;4969682;28;20039;-77
2024/01/17 09:23:27;;;;;;;16.53;10.20;;;-0.90;99.90;;;;;;4987625;28;20044;-80
2024/01/17 09:25:53;;;;;;;16.50;9.70;;;-0.90;99.90;;;;;;4955114;28;20069;-85
2024/01/17 09:28:19;;;;;;;16.23;9.60;;;-0.90;99.90;;;;;;4985262;28;20568;-78
2024/01/17 09:30:46;;;;;;;17.90;9.07;;;-0.90;99.90;;;;;;4954864;28;20022;-76
2024/01/17 09:33:12;;;;;;;16.77;9.13;;;-0.80;99.90;;;;;;4950115;28;20023;-79
2024/01/17 09:35:42;;;;;;;17.03;9.20;;;-0.80;99.90;;;;;;4987209;28;20780;-78
2024/01/17 09:38:11;;;;;;;16.00;8.93;;;-0.80;99.90;;;;;;4982181;28;20348;-77
2024/01/17 09:40:39;;;;;;;15.30;9.53;;;-0.70;99.90;;;;;;4953578;28;20065;-81
2024/01/17 09:43:06;;;;;;;15.53;9.20;;;-0.60;99.90;;;;;;4970775;28;21215;-80
2024/01/17 09:45:33;;;;;;;16.60;9.60;;;-0.60;99.90;;;;;;4955503;28;20046;-82
2024/01/17 09:48:02;;;;;;;13.43;8.30;;;-0.60;99.90;;;;;;4956388;28;20026;-78
2024/01/17 09:50:29;;;;;;;12.80;8.57;;;-0.50;99.90;;;;;;4954713;28;20034;-82
2024/01/17 09:52:57;;;;;;;16.90;9.83;;;-0.40;99.90;;;;;;5001755;28;20037;-80
2024/01/17 09:55:26;;;;;;;18.43;10.00;;;-0.40;99.90;;;;;;5003567;28;20583;-84
2024/01/17 09:57:56;;;;;;;15.30;9.83;;;-0.30;99.90;;;;;;4951298;28;20042;-80
2024/01/17 10:00:23;;;;;;;15.00;9.87;;;-0.30;99.90;;;;;;4969662;28;20041;-82
2024/01/17 10:02:50;;;;;;;16.87;9.70;;;-0.30;99.90;;;;;;5003559;28;20354;-83
2024/01/17 10:05:18;;;;;;;15.80;10.13;;;-0.30;99.90;;;;;;4986043;28;20043;-80
2024/01/17 10:07:45;;;;;;;14.70;9.20;;;-0.20;99.90;;;;;;4954794;28;20470;-84
2024/01/17 10:10:11;;;;;;;13.83;8.67;;;-0.20;99.90;;;;;;5002425;28;20038;-74
2024/01/17 10:12:38;;;;;;;15.03;9.27;;;-0.10;99.90;;;;;;4987716;28;20858;-82
2024/01/17 10:15:06;;;;;;;18.00;10.80;;;-0.10;99.90;;;;;;5006271;28;20038;-79
2024/01/17 10:17:36;;;;;;;15.47;9.27;;;-0.10;99.90;;;;;;4956271;28;20041;-74
2024/01/17 10:20:02;;;;;;;17.13;10.63;;;0.00;99.90;;;;;;4985996;28;20030;-83
2024/01/17 10:22:31;;;;;;;15.83;9.20;;;0.10;99.90;;;;;;4972384;28;20473;-82
2024/01/17 10:25:00;;;;;;;17.63;9.63;;;0.20;99.90;;;;;;5005267;28;20021;-76
2024/01/17 10:27:29;;;;;;;18.60;10.40;;;0.20;99.90;;;;;;4975468;28;20405;-80
2024/01/17 10:29:56;;;;;;;17.93;10.73;;;0.30;99.90;;;;;;4972161;28;20050;-81
2024/01/17 10:32:23;;;;;;;15.83;9.97;;;0.30;99.90;;;;;;4957571;28;20030;-83
2024/01/17 10:34:49;;;;;;;17.23;9.40;;;0.30;99.90;;;;;;4975113;28;20049;-82
2024/01/17 10:37:19;;;;;;;16.57;10.33;;;0.30;99.90;;;;;;4976368;28;20030;-78
2024/01/17 10:39:45;;;;;;;18.20;10.97;;;0.40;99.90;;;;;;4958461;28;20054;-79
2024/01/17 10:42:19;;;;;;;21.50;11.07;;;0.40;99.90;;;;;;4958623;28;20022;-87
2024/01/17 10:44:45;;;;;;;17.60;9.43;;;0.50;99.90;;;;;;4976561;28;20046;-73
2024/01/17 10:47:12;;;;;;;18.00;9.93;;;0.50;99.90;;;;;;4958558;28;20051;-82
2024/01/17 10:49:38;;;;;;;14.77;9.53;;;0.60;99.90;;;;;;4975030;28;20046;-82
2024/01/17 10:52:08;;;;;;;16.57;9.97;;;0.60;99.90;;;;;;4973992;28;20045;-83
2024/01/17 10:54:44;;;;;;;16.10;9.73;;;0.60;99.90;;;;;;4983681;28;20488;-75
2024/01/17 10:57:10;;;;;;;16.97;9.77;;;0.60;99.90;;;;;;4963975;28;20035;-80
2024/01/17 10:59:42;;;;;;;15.97;9.97;;;0.70;99.90;;;;;;5005359;28;20396;-83
2024/01/17 11:02:19;;;;;;;19.80;11.43;;;0.70;99.90;;;;;;4968651;28;20042;-78
2024/01/17 11:04:54;;;;;;;18.60;10.83;;;0.70;99.90;;;;;;4972920;28;20061;-83
2024/01/17 11:07:23;;;;;;;18.77;10.77;;;0.80;99.90;;;;;;4973920;28;20049;-81
2024/01/17 11:09:52;;;;;;;20.37;10.97;;;0.80;99.90;;;;;;4974527;28;20038;-82
2024/01/17 11:12:20;;;;;;;21.27;10.67;;;0.80;99.90;;;;;;4972701;28;20049;-78
2024/01/17 11:14:49;;;;;;;18.73;12.20;;;0.80;99.90;;;;;;4959390;28;20400;-80
2024/01/17 11:17:17;;;;;;;19.63;10.30;;;0.80;99.90;;;;;;4985027;28;20373;-85
2024/01/17 11:19:44;;;;;;;16.37;10.03;;;0.80;99.90;;;;;;4972135;28;20041;-83
2024/01/17 11:22:12;;;;;;;19.27;10.83;;;0.80;99.90;;;;;;4957468;28;20442;-80
2024/01/17 11:24:42;;;;;;;15.47;9.80;;;0.80;99.90;;;;;;4973329;28;20041;-85
2024/01/17 11:27:33;;;;;;;15.43;10.40;;;0.80;99.90;;;;;;4973179;28;20489;-75
2024/01/17 11:30:23;;;;;;;17.67;10.47;;;0.80;99.90;;;;;;4938163;28;20030;-82
2024/01/17 11:33:00;;;;;;;18.40;10.50;;;0.80;99.90;;;;;;4989314;28;20393;-84
2024/01/17 11:35:40;;;;;;;17.00;10.53;;;0.90;99.90;;;;;;4988448;28;20462;-74
2024/01/17 11:38:27;;;;;;;16.47;10.30;;;0.90;99.90;;;;;;4989024;28;20041;-84
2024/01/17 11:41:06;;;;;;;14.37;9.93;;;0.90;99.90;;;;;;5004426;28;20034;-75
2024/01/17 11:43:41;;;;;;;14.50;10.27;;;0.90;99.90;;;;;;4990280;28;20035;-80
2024/01/17 11:46:10;;;;;;;16.13;9.73;;;1.00;99.90;;;;;;4974245;28;20053;-81
2024/01/17 11:48:40;;;;;;;16.83;9.63;;;1.00;99.90;;;;;;4989872;28;20042;-77
2024/01/17 11:51:07;;;;;;;12.87;8.77;;;1.10;99.90;;;;;;4973791;28;20477;-79
2024/01/17 11:53:40;;;;;;;16.90;9.57;;;1.10;99.90;;;;;;4968617;28;20057;-79
2024/01/17 11:56:09;;;;;;;18.10;10.05;;;1.10;99.90;;;;;;4975235;28;20030;-83
2024/01/17 11:58:47;;;;;;;15.57;10.10;;;1.10;99.90;;;;;;4972558;28;20029;-84
2024/01/17 12:01:37;;;;;;;16.63;8.90;;;1.20;99.90;;;;;;4987021;28;20061;-79
2024/01/17 12:04:19;;;;;;;14.20;8.97;;;1.20;99.90;;;;;;4984847;28;20034;-84
2024/01/17 12:06:50;;;;;;;14.70;9.63;;;1.20;99.90;;;;;;4977388;28;20110;-77
2024/01/17 12:09:20;;;;;;;15.80;10.77;;;1.20;99.90;;;;;;4975867;28;20729;-79
2024/01/17 12:11:47;;;;;;;14.13;9.70;;;1.20;99.90;;;;;;4956717;28;20049;-79
2024/01/17 12:14:17;;;;;;;14.47;9.63;;;1.20;99.90;;;;;;4971198;28;20034;-76
2024/01/17 12:16:49;;;;;;;14.40;9.53;;;1.20;99.90;;;;;;4970214;28;20029;-80
2024/01/17 12:19:17;;;;;;;17.27;10.73;;;1.20;99.90;;;;;;4969419;28;20434;-75
2024/01/17 12:21:44;;;;;;;16.63;10.83;;;1.20;99.90;;;;;;4983911;28;20027;-75
2024/01/17 12:24:11;;;;;;;13.43;9.63;;;1.30;99.90;;;;;;4983690;28;20034;-82
2024/01/17 12:26:38;;;;;;;18.67;11.87;;;1.30;99.90;;;;;;4968101;28;20100;-77
2024/01/17 12:29:09;;;;;;;17.73;11.33;;;1.30;99.90;;;;;;4983311;28;20026;-80
2024/01/17 12:31:37;;;;;;;15.27;10.20;;;1.30;99.90;;;;;;4968381;28;20018;-77
2024/01/17 12:34:06;;;;;;;20.77;10.90;;;1.40;99.90;;;;;;4984525;28;20042;-80
2024/01/17 12:36:35;;;;;;;14.93;9.60;;;1.40;99.90;;;;;;4983468;28;20029;-77
2024/01/17 12:39:04;;;;;;;14.87;9.80;;;1.40;99.90;;;;;;4967175;28;20026;-81
2024/01/17 12:41:32;;;;;;;18.13;10.63;;;1.40;99.90;;;;;;4945078;28;20058;-75